Time;durP1;ratioP1;P1;durP2;ratioP2;P2;SDS_P1;SDS_P2;PMS_P1;PMS_P2;Temp;Humidity;BMP_temperature;BMP_pressure;BME280_temperature;BME280_humidity;BME280_pressure;Samples;Min_cycle;Max_cycle;Signal;HPM_P1;HPM_P2
2021/01/03 00:00:26;;;;;;;2.10;1.20;;;2.90;99.90;;;;;;5033354;28;20296;-76
2021/01/03 00:02:52;;;;;;;2.67;1.27;;;2.90;99.90;;;;;;5034810;28;20184;-76
2021/01/03 00:05:21;;;;;;;4.33;1.70;;;2.90;99.90;;;;;;5036365;28;20306;-76
2021/01/03 00:07:47;;;;;;;2.30;1.37;;;2.80;99.90;;;;;;5034633;28;20211;-76
2021/01/03 00:10:13;;;;;;;1.70;1.40;;;2.90;99.90;;;;;;5033222;28;20610;-76
2021/01/03 00:12:39;;;;;;;1.77;1.13;;;2.90;99.90;;;;;;5035031;28;20198;-76
2021/01/03 00:15:08;;;;;;;2.80;2.07;;;2.90;99.90;;;;;;5036300;28;20191;-76
2021/01/03 00:17:34;;;;;;;2.27;1.43;;;2.90;99.90;;;;;;5036969;28;20178;-76
2021/01/03 00:20:00;;;;;;;4.17;2.60;;;2.90;99.90;;;;;;5037751;28;20706;-76
2021/01/03 00:22:25;;;;;;;2.33;1.77;;;2.90;99.90;;;;;;5035286;28;20188;-76
2021/01/03 00:24:51;;;;;;;3.33;1.90;;;3.00;99.90;;;;;;5032890;28;20190;-76
2021/01/03 00:27:16;;;;;;;1.80;1.67;;;2.90;99.90;;;;;;5034164;28;20677;-76
2021/01/03 00:29:42;;;;;;;2.87;1.70;;;2.80;99.90;;;;;;5034289;28;20667;-76
2021/01/03 00:32:08;;;;;;;2.90;2.00;;;2.80;99.90;;;;;;5036790;28;20194;-75
2021/01/03 00:34:34;;;;;;;2.83;1.70;;;2.80;99.90;;;;;;5034486;28;20182;-76
2021/01/03 00:37:00;;;;;;;3.63;2.13;;;2.80;99.90;;;;;;5034653;28;20218;-76
2021/01/03 00:39:26;;;;;;;1.97;1.73;;;2.80;99.90;;;;;;5050790;28;20215;-76
2021/01/03 00:41:52;;;;;;;2.93;1.90;;;2.80;99.90;;;;;;5034999;28;20353;-77
2021/01/03 00:44:18;;;;;;;3.90;2.40;;;2.80;99.90;;;;;;5036189;28;20182;-76
2021/01/03 00:46:44;;;;;;;3.13;1.93;;;2.80;99.90;;;;;;5033054;28;20206;-75
2021/01/03 00:49:10;;;;;;;3.37;2.23;;;2.80;99.90;;;;;;5035071;28;20652;-76
2021/01/03 00:51:35;;;;;;;2.90;2.50;;;2.70;99.90;;;;;;5048691;28;20190;-76
2021/01/03 00:54:01;;;;;;;4.40;2.57;;;2.80;99.90;;;;;;5035659;28;20187;-76
2021/01/03 00:56:28;;;;;;;3.43;2.70;;;2.80;99.90;;;;;;5033490;28;20226;-76
2021/01/03 00:58:54;;;;;;;3.43;2.53;;;2.80;99.90;;;;;;5033754;28;20203;-76
2021/01/03 01:01:23;;;;;;;4.07;3.17;;;2.80;99.90;;;;;;5025538;28;20287;-76
2021/01/03 01:03:48;;;;;;;3.67;3.27;;;2.70;99.90;;;;;;5035124;28;20182;-76
2021/01/03 01:06:15;;;;;;;5.90;3.50;;;2.80;99.90;;;;;;5034511;28;20205;-76
2021/01/03 01:08:41;;;;;;;3.67;2.53;;;2.70;99.90;;;;;;5036905;28;20183;-76
2021/01/03 01:11:07;;;;;;;4.37;3.03;;;2.70;99.90;;;;;;5034147;28;20220;-76
2021/01/03 01:13:33;;;;;;;3.57;2.90;;;2.70;99.90;;;;;;5038695;28;20222;-76
2021/01/03 01:16:00;;;;;;;5.30;3.83;;;2.70;99.90;;;;;;5033709;28;20244;-76
2021/01/03 01:18:25;;;;;;;4.73;2.83;;;2.70;99.90;;;;;;5034428;28;20519;-76
2021/01/03 01:20:51;;;;;;;6.47;3.57;;;2.70;99.90;;;;;;5033163;28;20827;-76
2021/01/03 01:23:17;;;;;;;6.00;2.70;;;2.70;99.90;;;;;;5033281;28;20229;-76
2021/01/03 01:25:42;;;;;;;8.53;3.80;;;2.70;99.90;;;;;;5034459;28;20286;-76
2021/01/03 01:28:08;;;;;;;5.13;3.80;;;2.70;99.90;;;;;;5035011;28;20186;-76
2021/01/03 01:30:37;;;;;;;5.53;3.43;;;2.70;99.90;;;;;;5033220;28;20262;-76
2021/01/03 01:33:03;;;;;;;4.47;2.97;;;2.70;99.90;;;;;;5035020;28;20671;-76
2021/01/03 01:35:31;;;;;;;4.23;2.50;;;2.60;99.90;;;;;;5036040;28;20249;-76
2021/01/03 01:37:58;;;;;;;3.10;2.50;;;2.60;99.90;;;;;;5034423;28;20182;-76
2021/01/03 01:40:31;;;;;;;3.57;2.23;;;2.70;99.90;;;;;;5035616;28;20815;-76
2021/01/03 01:42:56;;;;;;;3.83;2.43;;;2.70;99.90;;;;;;5035744;28;20632;-76
2021/01/03 01:45:33;;;;;;;3.87;2.70;;;2.70;99.90;;;;;;5034673;28;20252;-76
2021/01/03 01:48:06;;;;;;;7.30;3.20;;;2.70;99.90;;;;;;5034767;28;20415;-76
2021/01/03 01:50:45;;;;;;;4.30;2.80;;;2.70;99.90;;;;;;5034487;28;20190;-76
2021/01/03 01:53:54;;;;;;;5.23;3.00;;;2.70;99.90;;;;;;5034176;28;20190;-76
2021/01/03 01:56:28;;;;;;;3.20;2.30;;;2.60;99.90;;;;;;5033528;28;20266;-76
2021/01/03 01:59:21;;;;;;;5.13;2.93;;;2.60;99.90;;;;;;5049266;28;20202;-76
2021/01/03 02:05:33;;;;;;;2.93;2.33;;;2.60;99.90;;;;;;5029932;28;20264;-76
2021/01/03 02:08:14;;;;;;;2.47;1.90;;;2.50;99.90;;;;;;5015382;28;20195;-76
2021/01/03 02:10:47;;;;;;;3.13;2.30;;;2.60;99.90;;;;;;5034227;28;20194;-76
2021/01/03 02:13:33;;;;;;;4.47;3.03;;;2.60;99.90;;;;;;5034904;28;20636;-76
2021/01/03 02:16:04;;;;;;;2.80;2.03;;;2.60;99.90;;;;;;5035745;28;20252;-76
2021/01/03 02:18:30;;;;;;;5.40;2.93;;;2.50;99.90;;;;;;5036090;28;20249;-76
2021/01/03 02:21:12;;;;;;;3.87;2.90;;;2.50;99.90;;;;;;5032842;28;20659;-77
2021/01/03 02:24:19;;;;;;;4.13;2.30;;;2.50;99.90;;;;;;5034178;28;20614;-75
2021/01/03 02:27:00;;;;;;;2.53;1.83;;;2.50;99.90;;;;;;5033375;28;20692;-76
2021/01/03 02:29:28;;;;;;;2.87;1.80;;;2.50;99.90;;;;;;5036333;28;20179;-76
2021/01/03 02:31:57;;;;;;;4.87;3.17;;;2.50;99.90;;;;;;5050288;28;20230;-76
2021/01/03 02:34:28;;;;;;;4.30;2.87;;;2.50;99.90;;;;;;5038125;28;20550;-76
2021/01/03 02:36:59;;;;;;;4.87;2.90;;;2.50;99.90;;;;;;5038629;28;20209;-76
2021/01/03 02:39:42;;;;;;;2.50;2.30;;;2.60;99.90;;;;;;5038325;28;20209;-76
2021/01/03 02:42:15;;;;;;;5.93;2.97;;;2.60;99.90;;;;;;5045051;28;20186;-76
2021/01/03 02:44:41;;;;;;;3.00;2.37;;;2.60;99.90;;;;;;5037381;28;20186;-76
2021/01/03 02:47:06;;;;;;;3.57;2.40;;;2.70;99.90;;;;;;5027519;28;20582;-77
2021/01/03 02:49:32;;;;;;;3.03;2.57;;;2.60;99.90;;;;;;5037727;28;20309;-76
2021/01/03 02:52:01;;;;;;;2.63;2.23;;;2.60;99.90;;;;;;5037669;28;20190;-77
2021/01/03 02:54:27;;;;;;;2.23;1.87;;;2.60;99.90;;;;;;5039457;28;20853;-76
2021/01/03 02:56:52;;;;;;;3.10;2.10;;;2.60;99.90;;;;;;5038522;28;20316;-76
2021/01/03 02:59:18;;;;;;;3.17;2.27;;;2.60;99.90;;;;;;5037042;28;20207;-76
2021/01/03 03:01:43;;;;;;;3.37;2.43;;;2.70;99.90;;;;;;5037942;28;20181;-76
2021/01/03 03:04:09;;;;;;;4.27;2.53;;;2.70;99.90;;;;;;5037388;28;20281;-76
2021/01/03 03:06:35;;;;;;;3.20;2.30;;;2.60;99.90;;;;;;5037945;28;20672;-76
2021/01/03 03:09:00;;;;;;;2.40;1.67;;;2.60;99.90;;;;;;5037410;28;20194;-76
2021/01/03 03:11:26;;;;;;;3.50;2.17;;;2.60;99.90;;;;;;5038048;28;20187;-76
2021/01/03 03:13:51;;;;;;;2.13;1.57;;;2.70;99.90;;;;;;5038578;28;20186;-76
2021/01/03 03:16:18;;;;;;;2.97;1.93;;;2.70;99.90;;;;;;5034443;28;20225;-76
2021/01/03 03:18:43;;;;;;;3.93;1.60;;;2.60;99.90;;;;;;5039219;28;20308;-76
2021/01/03 03:21:09;;;;;;;3.10;1.87;;;2.70;99.90;;;;;;5035290;28;20692;-76
2021/01/03 03:23:34;;;;;;;2.63;2.00;;;2.70;99.90;;;;;;5037695;28;20186;-76
2021/01/03 03:26:00;;;;;;;2.40;1.80;;;2.70;99.90;;;;;;5036458;28;20233;-76
2021/01/03 03:28:25;;;;;;;3.87;1.67;;;2.70;99.90;;;;;;5033947;28;20301;-76
2021/01/03 03:30:51;;;;;;;3.17;1.23;;;2.70;99.90;;;;;;5036652;28;20199;-76
2021/01/03 03:33:17;;;;;;;2.53;1.83;;;2.70;99.90;;;;;;5039515;28;20186;-76
2021/01/03 03:35:45;;;;;;;2.20;1.30;;;2.70;99.90;;;;;;5036325;28;20635;-76
2021/01/03 03:38:10;;;;;;;2.43;1.30;;;2.60;99.90;;;;;;5037587;28;20190;-75
2021/01/03 03:40:39;;;;;;;1.50;1.00;;;2.70;99.90;;;;;;5037865;28;20213;-75
2021/01/03 03:43:08;;;;;;;2.07;1.67;;;2.70;99.90;;;;;;5036858;28;20210;-75
2021/01/03 03:45:33;;;;;;;1.10;0.97;;;2.70;99.90;;;;;;5036656;28;20198;-76
2021/01/03 03:47:59;;;;;;;7.47;1.63;;;2.70;99.90;;;;;;5036244;28;20321;-76
2021/01/03 03:50:25;;;;;;;2.37;1.90;;;2.70;99.90;;;;;;5038902;28;20186;-76
2021/01/03 03:52:51;;;;;;;2.33;1.87;;;2.70;99.90;;;;;;5037086;28;21121;-76
2021/01/03 03:55:17;;;;;;;1.57;1.13;;;2.70;99.90;;;;;;5041519;28;20221;-75
2021/01/03 03:57:43;;;;;;;2.47;1.97;;;2.70;99.90;;;;;;5053591;28;20221;-76
2021/01/03 04:00:14;;;;;;;3.40;2.10;;;2.70;99.90;;;;;;5039249;28;20644;-76
2021/01/03 04:02:41;;;;;;;2.43;1.97;;;2.60;99.90;;;;;;5039628;28;20185;-76
2021/01/03 04:05:09;;;;;;;2.90;2.37;;;2.60;99.90;;;;;;5040388;28;20667;-76
2021/01/03 04:07:35;;;;;;;4.30;2.63;;;2.60;99.90;;;;;;5039762;28;20214;-76
2021/01/03 04:10:03;;;;;;;3.40;2.10;;;2.50;99.90;;;;;;5038558;28;20226;-76
2021/01/03 04:12:29;;;;;;;2.73;1.70;;;2.50;99.90;;;;;;5037480;28;20194;-76
2021/01/03 04:14:57;;;;;;;2.00;1.60;;;2.60;99.90;;;;;;5054423;28;20191;-76
2021/01/03 04:17:22;;;;;;;1.70;1.40;;;2.50;99.90;;;;;;5038840;28;20198;-76
2021/01/03 04:19:48;;;;;;;1.90;1.70;;;2.50;99.90;;;;;;5052924;28;20207;-76
2021/01/03 04:22:14;;;;;;;2.90;2.07;;;2.50;99.90;;;;;;5042711;28;20277;-76
2021/01/03 04:24:40;;;;;;;5.97;2.73;;;2.50;99.90;;;;;;5039212;28;20182;-76
2021/01/03 04:27:07;;;;;;;3.63;2.27;;;2.50;99.90;;;;;;5039321;28;20279;-76
2021/01/03 04:29:34;;;;;;;2.20;1.87;;;2.40;99.90;;;;;;5035810;28;20555;-76
2021/01/03 04:32:05;;;;;;;2.70;2.30;;;2.40;99.90;;;;;;5038112;28;20827;-76
2021/01/03 04:34:31;;;;;;;3.13;2.50;;;2.50;99.90;;;;;;5038829;28;20179;-76
2021/01/03 04:36:58;;;;;;;3.47;2.00;;;2.50;99.90;;;;;;5038811;28;20210;-76
2021/01/03 04:39:25;;;;;;;2.30;1.90;;;2.50;99.90;;;;;;5036708;28;20206;-76
2021/01/03 04:42:01;;;;;;;2.83;2.10;;;2.40;99.90;;;;;;5037669;28;20186;-75
2021/01/03 04:44:40;;;;;;;1.87;1.47;;;2.40;99.90;;;;;;5038796;28;20564;-76
2021/01/03 04:47:28;;;;;;;3.30;2.03;;;2.40;99.90;;;;;;5036410;28;20221;-75
2021/01/03 04:50:06;;;;;;;3.00;1.83;;;2.40;99.90;;;;;;5051567;28;20194;-76
2021/01/03 04:53:01;;;;;;;3.00;1.90;;;2.40;99.90;;;;;;5035687;28;20643;-75
2021/01/03 04:55:30;;;;;;;2.57;1.90;;;2.40;99.90;;;;;;5034815;28;20229;-76
2021/01/03 04:58:17;;;;;;;3.37;2.37;;;2.50;99.90;;;;;;5035140;28;20293;-76
2021/01/03 05:01:20;;;;;;;1.87;1.43;;;2.40;99.90;;;;;;5035433;28;20217;-76
2021/01/03 05:04:04;;;;;;;1.77;1.67;;;2.40;99.90;;;;;;5035910;28;20196;-76
2021/01/03 05:06:31;;;;;;;2.97;2.20;;;2.40;99.90;;;;;;5034609;28;20637;-76
2021/01/03 05:08:59;;;;;;;2.63;2.00;;;2.40;99.90;;;;;;5035082;28;20194;-75
2021/01/03 05:11:45;;;;;;;2.10;1.90;;;2.40;99.90;;;;;;5034926;28;20183;-75
2021/01/03 05:14:43;;;;;;;3.97;2.40;;;2.30;99.90;;;;;;5033322;28;20202;-75
2021/01/03 05:17:09;;;;;;;3.53;1.73;;;2.40;99.90;;;;;;5035344;28;20286;-76
2021/01/03 05:19:34;;;;;;;3.30;2.20;;;2.30;99.90;;;;;;5050870;28;20866;-76
2021/01/03 05:22:00;;;;;;;3.17;2.20;;;2.30;99.90;;;;;;5035210;28;20201;-76
2021/01/03 05:24:29;;;;;;;2.60;1.53;;;2.30;99.90;;;;;;5035122;28;20194;-76
2021/01/03 05:27:10;;;;;;;3.70;2.20;;;2.30;99.90;;;;;;5034490;28;20198;-76
2021/01/03 05:29:36;;;;;;;2.30;2.00;;;2.30;99.90;;;;;;5034066;28;20643;-76
2021/01/03 05:32:05;;;;;;;5.50;1.93;;;2.40;99.90;;;;;;5035136;28;20190;-76
2021/01/03 05:34:40;;;;;;;2.27;2.07;;;2.30;99.90;;;;;;5035102;28;20187;-75
2021/01/03 05:37:15;;;;;;;2.23;1.63;;;2.40;99.90;;;;;;5033308;28;20758;-76
2021/01/03 05:39:42;;;;;;;1.80;1.37;;;2.30;99.90;;;;;;5025459;28;21001;-75
2021/01/03 05:42:20;;;;;;;2.20;2.00;;;2.30;99.90;;;;;;5034819;28;20653;-75
2021/01/03 05:45:21;;;;;;;2.60;1.90;;;2.30;99.90;;;;;;5049901;28;20279;-75
2021/01/03 05:48:04;;;;;;;2.33;1.80;;;2.30;99.90;;;;;;5034904;28;20298;-75
2021/01/03 05:50:40;;;;;;;2.60;2.20;;;2.30;99.90;;;;;;5034939;28;20309;-74
2021/01/03 05:53:13;;;;;;;2.83;2.07;;;2.30;99.90;;;;;;5033671;28;20451;-75
2021/01/03 05:55:52;;;;;;;1.90;1.43;;;2.30;99.90;;;;;;5033118;28;20261;-76
2021/01/03 05:58:26;;;;;;;1.63;1.53;;;2.30;99.90;;;;;;5024708;28;21008;-75
2021/01/03 06:00:52;;;;;;;1.33;1.10;;;2.40;99.90;;;;;;5035106;28;20573;-76
2021/01/03 06:03:28;;;;;;;1.60;1.20;;;2.30;99.90;;;;;;5024975;28;20188;-75
2021/01/03 06:06:00;;;;;;;1.90;1.70;;;2.40;99.90;;;;;;5034955;28;20293;-75
2021/01/03 06:08:28;;;;;;;1.50;1.40;;;2.30;99.90;;;;;;5039657;28;21219;-76
2021/01/03 06:10:54;;;;;;;3.07;2.07;;;2.30;99.90;;;;;;5038751;28;20193;-75
2021/01/03 06:13:25;;;;;;;1.90;1.57;;;2.30;99.90;;;;;;5038463;28;20190;-75
2021/01/03 06:16:00;;;;;;;2.70;1.30;;;2.30;99.90;;;;;;5038835;28;20198;-76
2021/01/03 06:18:44;;;;;;;3.30;1.27;;;2.30;99.90;;;;;;5039052;28;20553;-76
2021/01/03 06:21:26;;;;;;;1.97;1.43;;;2.20;99.90;;;;;;5039124;28;20182;-76
2021/01/03 06:24:17;;;;;;;1.70;1.47;;;2.30;99.90;;;;;;5037725;28;20183;-75
2021/01/03 06:26:48;;;;;;;1.57;1.20;;;2.20;99.90;;;;;;5037892;28;20210;-76
2021/01/03 06:29:36;;;;;;;6.33;1.63;;;2.30;99.90;;;;;;5038434;28;20180;-76
2021/01/03 06:32:43;;;;;;;1.30;1.20;;;2.30;99.90;;;;;;5038359;28;20178;-75
2021/01/03 06:35:25;;;;;;;3.97;2.60;;;2.20;99.90;;;;;;4996390;28;20605;-75
2021/01/03 06:37:54;;;;;;;1.73;1.20;;;2.20;99.90;;;;;;4996056;28;20191;-75
2021/01/03 06:40:46;;;;;;;2.20;1.57;;;2.20;99.90;;;;;;5029143;28;20258;-76
2021/01/03 06:43:28;;;;;;;2.03;1.63;;;2.20;99.90;;;;;;5038026;28;20590;-76
2021/01/03 06:46:05;;;;;;;3.67;1.93;;;2.20;99.90;;;;;;5038461;28;20211;-75
2021/01/03 06:48:49;;;;;;;2.60;1.73;;;2.30;99.90;;;;;;5038597;28;20182;-76
2021/01/03 06:51:42;;;;;;;3.33;2.00;;;2.20;99.90;;;;;;5036197;28;20656;-76
2021/01/03 06:54:25;;;;;;;2.17;1.60;;;2.30;99.90;;;;;;5039039;28;20178;-76
2021/01/03 06:57:21;;;;;;;2.47;1.80;;;2.20;99.90;;;;;;5038951;28;20332;-75
2021/01/03 07:00:07;;;;;;;1.50;1.30;;;2.30;99.90;;;;;;5037353;28;20198;-76
2021/01/03 07:02:39;;;;;;;1.93;1.57;;;2.30;99.90;;;;;;5036242;28;20178;-75
2021/01/03 07:05:09;;;;;;;3.43;2.57;;;2.30;99.90;;;;;;5037589;28;20186;-75
2021/01/03 07:07:38;;;;;;;2.07;1.70;;;2.30;99.90;;;;;;5035754;28;20754;-75
2021/01/03 07:10:29;;;;;;;4.27;2.70;;;2.20;99.90;;;;;;5037743;28;20518;-76
2021/01/03 07:12:55;;;;;;;2.80;2.00;;;2.20;99.90;;;;;;5035440;28;20183;-76
2021/01/03 07:15:24;;;;;;;2.43;1.50;;;2.20;99.90;;;;;;5034872;28;20210;-75
2021/01/03 07:17:56;;;;;;;2.23;1.60;;;2.20;99.90;;;;;;5036147;28;20183;-76
2021/01/03 07:20:34;;;;;;;2.90;2.20;;;2.20;99.90;;;;;;5036171;28;20256;-76
2021/01/03 07:23:13;;;;;;;3.43;1.90;;;2.30;99.90;;;;;;5035952;28;20532;-76
2021/01/03 07:25:55;;;;;;;2.30;1.47;;;2.30;99.90;;;;;;5034220;28;20237;-76
2021/01/03 07:28:30;;;;;;;2.37;1.60;;;2.30;99.90;;;;;;5038376;28;20209;-76
2021/01/03 07:30:59;;;;;;;1.93;1.60;;;2.30;99.90;;;;;;5035667;28;20186;-76
2021/01/03 07:33:36;;;;;;;2.43;1.77;;;2.30;99.90;;;;;;5052273;28;20200;-75
2021/01/03 07:36:37;;;;;;;2.17;1.10;;;2.30;99.90;;;;;;5038208;28;20225;-76
2021/01/03 07:39:07;;;;;;;3.03;1.80;;;2.20;99.90;;;;;;5036408;28;20660;-75
2021/01/03 07:41:32;;;;;;;3.43;2.07;;;2.20;99.90;;;;;;5036554;28;20183;-76
2021/01/03 07:44:06;;;;;;;2.83;2.03;;;2.20;99.90;;;;;;5037419;28;20533;-76
2021/01/03 07:46:46;;;;;;;2.50;1.97;;;2.20;99.90;;;;;;5036240;28;20195;-75
2021/01/03 07:49:24;;;;;;;3.37;2.23;;;2.40;99.90;;;;;;5036077;28;20186;-76
2021/01/03 07:51:50;;;;;;;1.53;1.00;;;2.20;99.90;;;;;;5036889;28;20170;-75
2021/01/03 07:54:16;;;;;;;2.80;2.50;;;2.20;99.90;;;;;;5036166;28;20193;-76
2021/01/03 07:56:41;;;;;;;2.07;1.87;;;2.20;99.90;;;;;;5035739;28;20306;-76
2021/01/03 07:59:07;;;;;;;3.20;1.93;;;2.20;99.90;;;;;;5036544;28;20293;-75
2021/01/03 08:01:38;;;;;;;1.40;1.30;;;2.20;99.90;;;;;;5035380;28;20213;-76
2021/01/03 08:04:17;;;;;;;3.33;1.80;;;2.10;99.90;;;;;;5037448;28;20187;-75
2021/01/03 08:06:43;;;;;;;2.17;1.60;;;2.10;99.90;;;;;;5034380;28;20198;-76
2021/01/03 08:09:08;;;;;;;2.43;2.13;;;2.10;99.90;;;;;;5036559;28;20194;-76
2021/01/03 08:11:40;;;;;;;3.27;2.20;;;2.10;99.90;;;;;;5051098;28;20233;-75
2021/01/03 08:14:13;;;;;;;2.60;2.37;;;2.10;99.90;;;;;;5035657;28;20641;-76
2021/01/03 08:16:39;;;;;;;2.43;1.73;;;2.10;99.90;;;;;;5036262;28;20210;-75
2021/01/03 08:19:08;;;;;;;2.73;1.77;;;2.10;99.90;;;;;;5034850;28;20292;-76
2021/01/03 08:21:36;;;;;;;4.23;2.23;;;2.00;99.90;;;;;;5034640;28;20178;-76
2021/01/03 08:24:18;;;;;;;3.13;2.50;;;2.00;99.90;;;;;;5035638;28;20909;-76
2021/01/03 08:26:55;;;;;;;3.17;2.13;;;2.10;99.90;;;;;;5033638;28;20206;-75
2021/01/03 08:29:23;;;;;;;5.30;3.70;;;2.00;99.90;;;;;;5040386;28;20205;-76
2021/01/03 08:31:52;;;;;;;3.50;2.23;;;2.00;99.90;;;;;;5033822;28;20269;-74
2021/01/03 08:34:24;;;;;;;2.43;2.10;;;1.90;99.90;;;;;;5034841;28;20198;-75
2021/01/03 08:36:50;;;;;;;9.27;6.33;;;2.00;99.90;;;;;;5034670;28;20566;-74
2021/01/03 08:39:16;;;;;;;4.07;2.53;;;2.00;99.90;;;;;;5033234;28;20211;-76
2021/01/03 08:42:35;;;;;;;4.70;3.33;;;2.10;99.90;;;;;;5033557;28;20190;-75
2021/01/03 08:45:02;;;;;;;4.87;2.70;;;2.10;99.90;;;;;;5029032;28;20229;-75
2021/01/03 08:47:35;;;;;;;5.17;3.30;;;2.00;99.90;;;;;;5034968;28;20237;-76
2021/01/03 08:50:05;;;;;;;5.33;2.70;;;2.10;99.90;;;;;;5033865;28;20656;-75
2021/01/03 08:52:31;;;;;;;3.27;1.80;;;2.00;99.90;;;;;;5034276;28;20232;-75
2021/01/03 08:55:18;;;;;;;45.33;23.87;;;2.00;99.90;;;;;;5046451;28;20206;-76
2021/01/03 08:57:52;;;;;;;34.93;21.77;;;2.10;99.90;;;;;;5033751;28;20806;-76
2021/01/03 09:00:21;;;;;;;5.50;3.93;;;2.00;99.90;;;;;;5036048;28;20249;-75
2021/01/03 09:02:48;;;;;;;4.07;3.27;;;2.00;99.90;;;;;;5034704;28;20187;-76
2021/01/03 09:05:18;;;;;;;4.03;2.93;;;1.90;99.90;;;;;;5040672;28;20983;-76
2021/01/03 09:07:45;;;;;;;2.60;2.37;;;1.90;99.90;;;;;;5034365;28;20190;-76
2021/01/03 09:10:33;;;;;;;2.90;2.20;;;1.90;99.90;;;;;;5032653;28;20195;-75
2021/01/03 09:13:20;;;;;;;2.83;2.57;;;2.00;99.90;;;;;;5039375;28;20597;-75
2021/01/03 09:16:13;;;;;;;4.90;2.50;;;2.00;99.90;;;;;;5033116;28;20747;-74
2021/01/03 09:18:50;;;;;;;3.37;2.87;;;1.90;99.90;;;;;;5032679;28;20204;-75
2021/01/03 09:21:17;;;;;;;6.67;3.07;;;2.00;99.90;;;;;;5032483;28;20189;-75
2021/01/03 09:23:43;;;;;;;4.53;2.40;;;2.00;99.90;;;;;;5035083;28;20217;-75
2021/01/03 09:26:09;;;;;;;7.63;4.27;;;1.90;99.90;;;;;;5049419;28;21058;-76
2021/01/03 09:28:41;;;;;;;4.20;2.60;;;2.00;99.90;;;;;;5032534;28;20193;-75
2021/01/03 09:31:19;;;;;;;9.37;4.47;;;1.90;99.90;;;;;;5032789;28;20236;-75
2021/01/03 09:33:49;;;;;;;8.73;4.10;;;2.00;99.90;;;;;;5033599;28;20651;-76
2021/01/03 09:36:44;;;;;;;4.23;3.27;;;2.00;99.90;;;;;;5033779;28;20199;-75
2021/01/03 09:39:31;;;;;;;3.27;2.47;;;1.90;99.90;;;;;;5032647;28;20283;-75
2021/01/03 09:42:22;;;;;;;3.17;2.87;;;2.00;99.90;;;;;;5049032;28;20252;-75
2021/01/03 09:44:59;;;;;;;2.47;1.70;;;1.90;99.90;;;;;;5032394;28;20558;-75
2021/01/03 09:47:42;;;;;;;4.50;3.73;;;2.00;99.90;;;;;;5034301;28;20212;-75
2021/01/03 09:50:38;;;;;;;5.60;2.97;;;1.90;99.90;;;;;;5031431;28;20554;-74
2021/01/03 09:53:19;;;;;;;3.90;2.80;;;1.90;99.90;;;;;;5034065;28;20187;-75
2021/01/03 09:56:08;;;;;;;4.30;2.63;;;1.90;99.90;;;;;;5032653;28;20221;-75
2021/01/03 09:58:39;;;;;;;6.13;3.23;;;1.90;99.90;;;;;;5032898;28;20175;-75
2021/01/03 10:01:07;;;;;;;11.60;7.03;;;1.90;99.90;;;;;;5048719;28;20207;-75
2021/01/03 10:03:40;;;;;;;4.90;4.40;;;1.80;99.90;;;;;;5032815;28;20318;-75
2021/01/03 10:06:31;;;;;;;6.10;3.30;;;1.80;99.90;;;;;;5031740;28;20201;-75
2021/01/03 10:09:18;;;;;;;4.70;3.43;;;1.80;99.90;;;;;;5030368;28;20183;-75
2021/01/03 10:11:45;;;;;;;7.60;3.33;;;1.80;99.90;;;;;;5033643;28;20182;-75
2021/01/03 10:14:28;;;;;;;6.27;3.00;;;1.80;99.90;;;;;;5032895;28;20178;-75
2021/01/03 10:16:53;;;;;;;6.73;5.30;;;1.80;99.90;;;;;;5022606;28;20217;-75
2021/01/03 10:19:22;;;;;;;2.67;2.47;;;1.80;99.90;;;;;;5032920;28;20211;-75
2021/01/03 10:21:51;;;;;;;5.47;3.07;;;1.80;99.90;;;;;;5032493;28;20189;-74
2021/01/03 10:24:23;;;;;;;4.03;2.87;;;1.70;99.90;;;;;;5034848;28;20195;-75
2021/01/03 10:27:04;;;;;;;2.30;1.73;;;1.70;99.90;;;;;;5038927;28;20586;-75
2021/01/03 10:29:32;;;;;;;4.60;2.20;;;1.80;99.90;;;;;;5030500;28;20202;-75
2021/01/03 10:31:58;;;;;;;4.13;3.57;;;1.70;99.90;;;;;;5032401;28;20244;-75
2021/01/03 10:34:25;;;;;;;5.30;2.00;;;1.80;99.90;;;;;;5028625;28;20190;-75
2021/01/03 10:36:57;;;;;;;2.33;1.93;;;1.80;99.90;;;;;;5030557;28;20233;-75
2021/01/03 10:39:24;;;;;;;3.67;2.10;;;1.80;99.90;;;;;;5028700;28;20213;-75
2021/01/03 10:41:50;;;;;;;4.53;3.57;;;1.80;99.90;;;;;;5044728;28;20186;-75
2021/01/03 10:44:16;;;;;;;3.30;2.47;;;1.80;99.90;;;;;;5030568;28;20609;-75
2021/01/03 10:46:42;;;;;;;3.53;2.60;;;1.80;99.90;;;;;;5032084;28;20215;-75
2021/01/03 10:49:09;;;;;;;1.47;1.30;;;1.70;99.90;;;;;;5031508;28;20175;-75
2021/01/03 10:51:41;;;;;;;1.50;1.40;;;1.70;99.90;;;;;;5030274;28;20227;-75
2021/01/03 10:54:08;;;;;;;2.13;1.67;;;1.70;99.90;;;;;;5035266;28;20186;-75
2021/01/03 10:56:35;;;;;;;3.03;1.67;;;1.70;99.90;;;;;;5035178;28;20296;-76
2021/01/03 10:59:01;;;;;;;1.80;1.33;;;1.70;99.90;;;;;;5036533;28;20210;-75
2021/01/03 11:01:26;;;;;;;1.60;1.07;;;1.70;99.90;;;;;;5033064;28;20955;-75
2021/01/03 11:03:53;;;;;;;3.07;1.63;;;1.70;99.90;;;;;;5033440;28;20208;-75
2021/01/03 11:06:19;;;;;;;1.27;0.93;;;1.70;99.90;;;;;;5033892;28;20676;-75
2021/01/03 11:08:45;;;;;;;1.63;1.53;;;1.60;99.90;;;;;;5023762;28;20182;-75
2021/01/03 11:11:17;;;;;;;2.20;1.57;;;1.70;99.90;;;;;;5033078;28;20297;-75
2021/01/03 11:13:42;;;;;;;2.10;1.83;;;1.80;99.90;;;;;;5035301;28;20195;-75
2021/01/03 11:16:08;;;;;;;2.00;1.00;;;1.80;99.90;;;;;;5034258;28;20206;-75
2021/01/03 11:18:34;;;;;;;11.97;8.53;;;1.90;99.90;;;;;;5035950;28;20186;-75
2021/01/03 11:21:00;;;;;;;3.23;2.93;;;2.00;99.90;;;;;;5030314;28;20645;-75
2021/01/03 11:23:25;;;;;;;3.03;2.17;;;2.00;99.90;;;;;;5034089;28;20268;-74
2021/01/03 11:25:51;;;;;;;2.43;2.23;;;2.00;99.90;;;;;;5031736;28;20665;-75
2021/01/03 11:28:16;;;;;;;2.23;1.30;;;2.00;99.90;;;;;;5035225;28;20194;-74
2021/01/03 11:30:42;;;;;;;2.07;1.93;;;1.90;99.90;;;;;;5033224;28;20213;-75
2021/01/03 11:33:08;;;;;;;1.63;1.27;;;1.90;99.90;;;;;;5035374;28;20175;-74
2021/01/03 11:35:33;;;;;;;2.23;2.03;;;2.10;99.90;;;;;;5048389;28;20206;-75
2021/01/03 11:37:59;;;;;;;2.17;1.57;;;2.00;99.90;;;;;;5031815;28;20206;-75
2021/01/03 11:40:25;;;;;;;1.87;1.77;;;2.10;99.90;;;;;;5035653;28;20200;-75
2021/01/03 11:42:51;;;;;;;2.33;1.67;;;2.10;99.90;;;;;;5035443;28;20186;-75
2021/01/03 11:45:20;;;;;;;3.70;3.07;;;2.20;99.90;;;;;;5031084;28;20205;-75
2021/01/03 11:47:46;;;;;;;2.43;2.00;;;2.10;99.90;;;;;;5032454;28;20250;-75
2021/01/03 11:50:16;;;;;;;1.80;1.63;;;2.10;99.90;;;;;;5028889;28;20950;-75
2021/01/03 11:52:42;;;;;;;2.20;1.60;;;2.10;99.90;;;;;;5032256;28;20265;-75
2021/01/03 11:55:11;;;;;;;1.67;1.30;;;2.10;99.90;;;;;;5051274;28;20770;-75
2021/01/03 11:57:37;;;;;;;4.10;3.53;;;2.10;99.90;;;;;;5030701;28;20390;-75
2021/01/03 12:00:07;;;;;;;6.23;4.67;;;2.10;99.90;;;;;;5036062;28;20243;-75
2021/01/03 12:02:32;;;;;;;1.77;1.53;;;2.10;99.90;;;;;;5033342;28;20236;-75
2021/01/03 12:04:58;;;;;;;1.93;1.37;;;2.20;99.90;;;;;;5018709;28;20614;-75
2021/01/03 12:07:24;;;;;;;1.83;1.63;;;2.20;99.90;;;;;;5026351;28;20223;-75
2021/01/03 12:09:49;;;;;;;1.90;1.80;;;2.30;99.90;;;;;;5028180;28;20206;-75
2021/01/03 12:12:18;;;;;;;4.50;2.83;;;2.10;99.90;;;;;;5030305;28;20215;-74
2021/01/03 12:14:45;;;;;;;2.03;1.70;;;2.00;99.90;;;;;;5051517;28;20186;-75
2021/01/03 12:17:15;;;;;;;1.63;1.00;;;2.00;99.90;;;;;;5029949;28;20235;-74
2021/01/03 12:19:40;;;;;;;1.97;1.47;;;2.10;99.90;;;;;;5033543;28;20182;-75
2021/01/03 12:22:06;;;;;;;1.20;1.10;;;2.20;99.90;;;;;;5032099;28;20197;-74
2021/01/03 12:24:32;;;;;;;1.23;1.03;;;2.10;99.90;;;;;;5035828;28;20182;-74
2021/01/03 12:26:58;;;;;;;1.97;1.30;;;2.10;99.90;;;;;;5028109;28;20267;-74
2021/01/03 12:29:25;;;;;;;1.43;1.20;;;2.00;99.90;;;;;;5033549;28;20216;-74
2021/01/03 12:32:13;;;;;;;1.63;1.20;;;2.00;99.90;;;;;;5034507;28;20290;-75
2021/01/03 12:34:39;;;;;;;2.33;1.10;;;2.10;99.90;;;;;;5028690;28;20259;-75
2021/01/03 12:37:06;;;;;;;2.20;0.80;;;2.10;99.90;;;;;;5026796;28;20207;-75
2021/01/03 12:39:32;;;;;;;2.00;1.37;;;2.00;99.90;;;;;;5030271;28;20196;-75
2021/01/03 12:41:58;;;;;;;2.00;1.23;;;2.00;99.90;;;;;;5033970;28;20186;-74
2021/01/03 12:44:24;;;;;;;1.60;1.00;;;2.00;99.90;;;;;;5032550;28;20190;-74
2021/01/03 12:46:50;;;;;;;1.43;1.23;;;2.00;99.90;;;;;;5033671;28;20220;-75
2021/01/03 12:49:15;;;;;;;1.30;1.17;;;2.00;99.90;;;;;;5036033;28;20292;-74
2021/01/03 12:51:42;;;;;;;1.50;1.40;;;1.90;99.90;;;;;;5033246;28;20182;-75
2021/01/03 12:54:08;;;;;;;0.57;0.57;;;1.90;99.90;;;;;;5028704;28;20198;-75
2021/01/03 12:56:34;;;;;;;1.30;0.77;;;1.80;99.90;;;;;;5027855;28;20237;-75
2021/01/03 12:59:03;;;;;;;1.50;1.07;;;1.90;99.90;;;;;;5029778;28;20675;-75
2021/01/03 13:01:31;;;;;;;0.60;0.50;;;1.90;99.90;;;;;;5028463;28;20178;-75
2021/01/03 13:03:58;;;;;;;1.37;0.87;;;1.80;99.90;;;;;;5029244;28;20317;-75
2021/01/03 13:06:25;;;;;;;0.90;0.90;;;1.80;99.90;;;;;;5032306;28;20211;-75
2021/01/03 13:08:51;;;;;;;1.70;1.20;;;1.70;99.90;;;;;;5028274;28;20740;-75
2021/01/03 13:11:17;;;;;;;0.73;0.73;;;1.70;99.90;;;;;;5030298;28;20229;-74
2021/01/03 13:13:43;;;;;;;0.73;0.73;;;1.60;99.90;;;;;;5032018;28;20178;-75
2021/01/03 13:16:09;;;;;;;1.60;1.47;;;1.70;99.90;;;;;;5032938;28;20217;-75
2021/01/03 13:18:35;;;;;;;8.17;7.47;;;1.70;99.90;;;;;;5032793;28;20191;-75
2021/01/03 13:21:00;;;;;;;9.37;8.60;;;1.60;99.90;;;;;;5045654;28;20260;-75
2021/01/03 13:23:26;;;;;;;9.93;9.07;;;1.60;99.90;;;;;;5028585;28;20190;-75